Terminal Aerodrome Forecast
Issued by NWS

Home | Current Version | Previous Version | Text Only | Print | Product List | Glossary On
Versions: 1 2 3 4 5 6 7 8 9 10 11 12 13 14 15 16 17 18 19 20 21 22 23 24 25 26 27 28 29 30 31 32 33 34
000
FTUS45 KGJT 272337
TAFVEL
TAF
KVEL 272337Z 2800/2824 32008KT P6SM VCSH BKN100
     FM280200 31004KT P6SM FEW100
     FM281500 12003KT P6SM SKC
     FM282100 24005KT P6SM FEW100=

USA.gov is the U.S. government's official web portal to all federal, state and local government web resources and services.